MMMM

General Francisco J. Mujica International Airport

Morelia, Mexico
TAF MMMM 211637Z 2118/2224 03008KT 6SM HZ SCT025 TX25/2121Z TN14/2212Z TEMPO 2120/2124 BKN025 FM220400 00000KT 6SM HZ SKC TEMPO 2211/2215 4SM HZ SCT015 FM221700 14008KT P6SM SCT025 SCT250 TEMPO 2220/2224 BKN025
Issued Valid From Valid To
Jul-21 @ 16:37 UTC
(6 hours ago)
Jul-21 @ 18:00 UTC
(5 hours ago)
Jul-23 @ 00:00 UTC
(-1 days ago)
Jul-21 @ 18:00 to Jul-22 @ 04:00
TAF MMMM 211637Z 2118/2224 03008KT 6SM HZ SCT025 TX25/2121Z TN14/2212Z
Wind Visibility Clouds Conditions
30° at 8 knots 6 miles
  • Scattered at 2,500' AGL
  • Haze
Temporary Jul-21 @ 20:00 to Jul-22 @ 00:00
TEMPO 2120/2124 BKN025
Clouds
  • Broken at 2,500' AGL
From Jul-22 @ 04:00 to Jul-22 @ 17:00
FM220400 00000KT 6SM HZ SKC
Visibility Clouds Conditions
6 miles
  • Clear skies
  • Haze
Temporary Jul-22 @ 11:00 to Jul-22 @ 15:00
TEMPO 2211/2215 4SM HZ SCT015
Visibility Clouds Conditions
4 miles
  • Scattered at 1,500' AGL
  • Haze
From Jul-22 @ 17:00 to Jul-23 @ 00:00
FM221700 14008KT P6SM SCT025 SCT250
Wind Visibility Clouds
140° at 8 knots Greater than 6 miles
  • Scattered at 2,500' AGL
  • Scattered at 25,000' AGL
Temporary Jul-22 @ 20:00 to Jul-23 @ 00:00
TEMPO 2220/2224 BKN025
Clouds
  • Broken at 2,500' AGL
TAF MMMM 211637Z 2118/2224 03008KT 6SM HZ SCT025 TX25/2121Z TN14/2212Z TEMPO 2120/2124 BKN025 FM220400 00000KT 6SM HZ SKC TEMPO 2211/2215 4SM HZ SCT015 FM221700 14008KT P6SM SCT025 SCT250 TEMPO 2220/2224 BKN025
Issued Jul-21 @ 16:37 UTC
(6 hours ago)
Valid From Jul-21 @ 18:00 UTC
(5 hours ago)
Valid To Jul-23 @ 00:00 UTC
(-1 days ago)
Jul-21 @ 18:00 - Jul-22 @ 04:00
Wind Visibility
30° at 8 knots 6 miles
Clouds
  • Scattered at 2,500' AGL
Conditions
  • Haze
Temporary Jul-21 @ 20:00 - Jul-22 @ 00:00
Clouds
  • Broken at 2,500' AGL
From Jul-22 @ 04:00 - Jul-22 @ 17:00
Clouds
  • Clear skies
Conditions
  • Haze
Temporary Jul-22 @ 11:00 - Jul-22 @ 15:00
Clouds
  • Scattered at 1,500' AGL
Conditions
  • Haze
From Jul-22 @ 17:00 - Jul-23 @ 00:00
Wind Visibility
140° at 8 knots Greater than 6 miles
Clouds
  • Scattered at 2,500' AGL
  • Scattered at 25,000' AGL
Temporary Jul-22 @ 20:00 - Jul-23 @ 00:00
Clouds
  • Broken at 2,500' AGL